If you wish to contribute or participate in the discussions about articles you are invited to join SKYbrary as a registered user

 Actions

Saint-Yan Airport

From SKYbrary Wiki

LFLN
Airport
ICAO: LFLN
Summary
Name Saint-Yan Airport
Region Europe
Territory France FR.gif
Location , Bourgogne
Serving St.-yan
Elevation 242.621 m
796 ft
796 ft242.621 m
Type medium airport
Coordinates 46° 24' 45.13" N, 4° 0' 47.75" E
Runways
Designator Length Width Surface ROPS
15L/33R 2030 m6,660.105 ft
45 m147.638 ft
CON /
15R/33L 1500 m4,921.26 ft
30 m98.425 ft
CON /


METAR
Observation LFLN 170930Z AUTO VRB02KT 9000 -RA ///TCU 14/12 Q1015 BECMG NSC
Station Saint-Yan
Date/Time 17 October 2019 09:30:00
Wind direction °
Wind speed 02 kts
Lowest cloud amount nil significant cloud
Temperature 14°C
Dew point 12°C
Humidity 87%
QNH 1015 hPa
Weather condition n/a